sensor_id;sensor_type;location;lat;lon;timestamp;P1;durP1;ratioP1;P2;durP2;ratioP2
32038;SDS011;18549;42.286;22.688;2023-10-08T00:01:58;9.95;;;5.65;;
32038;SDS011;18549;42.286;22.688;2023-10-08T00:04:25;7.60;;;4.82;;
32038;SDS011;18549;42.286;22.688;2023-10-08T00:06:52;10.70;;;6.00;;
32038;SDS011;18549;42.286;22.688;2023-10-08T00:09:32;7.95;;;5.30;;
32038;SDS011;18549;42.286;22.688;2023-10-08T00:12:03;8.38;;;5.57;;
32038;SDS011;18549;42.286;22.688;2023-10-08T00:14:30;10.60;;;5.82;;
32038;SDS011;18549;42.286;22.688;2023-10-08T00:17:09;9.88;;;5.07;;
32038;SDS011;18549;42.286;22.688;2023-10-08T00:19:37;9.27;;;5.32;;
32038;SDS011;18549;42.286;22.688;2023-10-08T00:22:08;8.73;;;5.25;;
32038;SDS011;18549;42.286;22.688;2023-10-08T00:24:40;9.32;;;5.32;;
32038;SDS011;18549;42.286;22.688;2023-10-08T00:27:11;7.15;;;4.97;;
32038;SDS011;18549;42.286;22.688;2023-10-08T00:29:45;8.30;;;4.18;;
32038;SDS011;18549;42.286;22.688;2023-10-08T00:32:12;10.13;;;5.12;;
32038;SDS011;18549;42.286;22.688;2023-10-08T00:34:42;7.78;;;4.75;;
32038;SDS011;18549;42.286;22.688;2023-10-08T00:37:10;9.05;;;4.68;;
32038;SDS011;18549;42.286;22.688;2023-10-08T00:39:43;10.05;;;5.07;;
32038;SDS011;18549;42.286;22.688;2023-10-08T00:42:10;9.00;;;5.72;;
32038;SDS011;18549;42.286;22.688;2023-10-08T00:44:38;7.97;;;5.75;;
32038;SDS011;18549;42.286;22.688;2023-10-08T00:47:15;12.07;;;6.72;;
32038;SDS011;18549;42.286;22.688;2023-10-08T00:49:46;7.25;;;5.07;;
32038;SDS011;18549;42.286;22.688;2023-10-08T00:52:29;15.63;;;5.97;;
32038;SDS011;18549;42.286;22.688;2023-10-08T00:55:23;8.07;;;5.53;;
32038;SDS011;18549;42.286;22.688;2023-10-08T00:58:00;11.75;;;4.97;;
32038;SDS011;18549;42.286;22.688;2023-10-08T01:00:34;10.43;;;6.10;;
32038;SDS011;18549;42.286;22.688;2023-10-08T01:03:07;20.33;;;13.90;;
32038;SDS011;18549;42.286;22.688;2023-10-08T01:05:51;22.13;;;15.43;;
32038;SDS011;18549;42.286;22.688;2023-10-08T01:08:20;19.45;;;13.15;;
32038;SDS011;18549;42.286;22.688;2023-10-08T01:18:28;13.25;;;7.80;;
32038;SDS011;18549;42.286;22.688;2023-10-08T01:20:58;9.55;;;6.03;;
32038;SDS011;18549;42.286;22.688;2023-10-08T01:23:34;10.15;;;5.62;;
32038;SDS011;18549;42.286;22.688;2023-10-08T01:26:03;7.32;;;4.37;;
32038;SDS011;18549;42.286;22.688;2023-10-08T01:28:36;8.85;;;5.22;;
32038;SDS011;18549;42.286;22.688;2023-10-08T01:31:04;8.75;;;4.70;;
32038;SDS011;18549;42.286;22.688;2023-10-08T01:33:32;16.50;;;8.25;;
32038;SDS011;18549;42.286;22.688;2023-10-08T01:36:04;14.90;;;8.68;;
32038;SDS011;18549;42.286;22.688;2023-10-08T01:38:39;16.33;;;8.05;;
32038;SDS011;18549;42.286;22.688;2023-10-08T01:41:08;14.93;;;7.95;;
32038;SDS011;18549;42.286;22.688;2023-10-08T01:43:44;17.52;;;7.87;;
32038;SDS011;18549;42.286;22.688;2023-10-08T01:46:11;19.80;;;8.30;;
32038;SDS011;18549;42.286;22.688;2023-10-08T01:48:40;13.83;;;7.40;;
32038;SDS011;18549;42.286;22.688;2023-10-08T01:51:10;14.45;;;7.20;;
32038;SDS011;18549;42.286;22.688;2023-10-08T01:53:51;18.23;;;7.03;;
32038;SDS011;18549;42.286;22.688;2023-10-08T01:56:20;15.27;;;7.60;;
32038;SDS011;18549;42.286;22.688;2023-10-08T01:58:49;13.07;;;6.60;;
32038;SDS011;18549;42.286;22.688;2023-10-08T02:01:19;13.60;;;6.70;;
32038;SDS011;18549;42.286;22.688;2023-10-08T02:03:46;13.83;;;7.00;;
32038;SDS011;18549;42.286;22.688;2023-10-08T02:06:15;18.17;;;7.05;;
32038;SDS011;18549;42.286;22.688;2023-10-08T02:08:42;13.35;;;7.22;;
32038;SDS011;18549;42.286;22.688;2023-10-08T02:11:11;13.52;;;6.62;;
32038;SDS011;18549;42.286;22.688;2023-10-08T02:13:41;17.00;;;6.67;;
32038;SDS011;18549;42.286;22.688;2023-10-08T02:16:08;18.97;;;7.87;;
32038;SDS011;18549;42.286;22.688;2023-10-08T02:18:36;12.70;;;6.67;;
32038;SDS011;18549;42.286;22.688;2023-10-08T02:21:03;11.83;;;6.67;;
32038;SDS011;18549;42.286;22.688;2023-10-08T02:23:31;13.48;;;6.95;;
32038;SDS011;18549;42.286;22.688;2023-10-08T02:26:00;9.18;;;6.10;;
32038;SDS011;18549;42.286;22.688;2023-10-08T02:28:29;8.70;;;5.57;;
32038;SDS011;18549;42.286;22.688;2023-10-08T02:30:58;12.30;;;6.00;;
32038;SDS011;18549;42.286;22.688;2023-10-08T02:33:26;11.50;;;5.53;;
32038;SDS011;18549;42.286;22.688;2023-10-08T02:35:55;13.10;;;6.90;;
32038;SDS011;18549;42.286;22.688;2023-10-08T02:38:23;14.27;;;7.60;;
32038;SDS011;18549;42.286;22.688;2023-10-08T02:40:50;12.02;;;6.45;;
32038;SDS011;18549;42.286;22.688;2023-10-08T02:43:22;11.65;;;5.97;;
32038;SDS011;18549;42.286;22.688;2023-10-08T02:45:51;11.05;;;4.75;;
32038;SDS011;18549;42.286;22.688;2023-10-08T02:48:21;9.27;;;5.12;;
32038;SDS011;18549;42.286;22.688;2023-10-08T02:50:49;12.30;;;5.93;;
32038;SDS011;18549;42.286;22.688;2023-10-08T02:53:18;12.00;;;4.90;;
32038;SDS011;18549;42.286;22.688;2023-10-08T02:55:49;9.50;;;5.87;;
32038;SDS011;18549;42.286;22.688;2023-10-08T02:58:16;9.38;;;6.12;;
32038;SDS011;18549;42.286;22.688;2023-10-08T03:00:44;11.12;;;4.90;;
32038;SDS011;18549;42.286;22.688;2023-10-08T03:03:14;9.45;;;5.82;;
32038;SDS011;18549;42.286;22.688;2023-10-08T03:05:45;11.63;;;5.22;;
32038;SDS011;18549;42.286;22.688;2023-10-08T03:08:16;8.37;;;5.23;;
32038;SDS011;18549;42.286;22.688;2023-10-08T03:10:46;13.57;;;5.80;;
32038;SDS011;18549;42.286;22.688;2023-10-08T03:13:15;9.83;;;5.80;;
32038;SDS011;18549;42.286;22.688;2023-10-08T03:15:46;13.45;;;7.10;;
32038;SDS011;18549;42.286;22.688;2023-10-08T03:18:24;10.70;;;6.30;;
32038;SDS011;18549;42.286;22.688;2023-10-08T03:21:00;15.05;;;7.03;;
32038;SDS011;18549;42.286;22.688;2023-10-08T03:23:29;14.43;;;8.13;;
32038;SDS011;18549;42.286;22.688;2023-10-08T03:26:01;12.95;;;7.32;;
32038;SDS011;18549;42.286;22.688;2023-10-08T03:28:36;19.20;;;8.77;;
32038;SDS011;18549;42.286;22.688;2023-10-08T03:31:06;19.65;;;8.43;;
32038;SDS011;18549;42.286;22.688;2023-10-08T03:33:43;23.98;;;9.98;;
32038;SDS011;18549;42.286;22.688;2023-10-08T03:36:14;18.50;;;9.13;;
32038;SDS011;18549;42.286;22.688;2023-10-08T03:38:48;21.37;;;8.75;;
32038;SDS011;18549;42.286;22.688;2023-10-08T03:41:21;19.48;;;8.73;;
32038;SDS011;18549;42.286;22.688;2023-10-08T03:43:53;15.95;;;8.73;;
32038;SDS011;18549;42.286;22.688;2023-10-08T03:46:27;16.17;;;7.20;;
32038;SDS011;18549;42.286;22.688;2023-10-08T03:48:59;17.95;;;9.40;;
32038;SDS011;18549;42.286;22.688;2023-10-08T03:51:30;17.73;;;7.55;;
32038;SDS011;18549;42.286;22.688;2023-10-08T03:54:04;19.65;;;8.38;;
32038;SDS011;18549;42.286;22.688;2023-10-08T03:56:48;19.87;;;8.70;;
32038;SDS011;18549;42.286;22.688;2023-10-08T03:59:16;16.60;;;8.83;;
32038;SDS011;18549;42.286;22.688;2023-10-08T04:01:56;18.10;;;9.23;;
32038;SDS011;18549;42.286;22.688;2023-10-08T04:04:35;17.60;;;7.62;;
32038;SDS011;18549;42.286;22.688;2023-10-08T04:07:17;46.88;;;21.23;;
32038;SDS011;18549;42.286;22.688;2023-10-08T04:10:05;32.30;;;16.57;;
32038;SDS011;18549;42.286;22.688;2023-10-08T04:13:00;32.85;;;14.93;;
32038;SDS011;18549;42.286;22.688;2023-10-08T04:15:28;18.98;;;11.40;;
32038;SDS011;18549;42.286;22.688;2023-10-08T04:17:56;41.30;;;22.52;;
32038;SDS011;18549;42.286;22.688;2023-10-08T04:20:30;36.78;;;21.62;;
32038;SDS011;18549;42.286;22.688;2023-10-08T04:23:03;26.40;;;11.83;;
32038;SDS011;18549;42.286;22.688;2023-10-08T04:25:39;22.83;;;8.43;;
32038;SDS011;18549;42.286;22.688;2023-10-08T04:28:09;16.30;;;7.30;;
32038;SDS011;18549;42.286;22.688;2023-10-08T04:30:43;24.27;;;7.67;;
32038;SDS011;18549;42.286;22.688;2023-10-08T04:33:14;14.30;;;7.53;;
32038;SDS011;18549;42.286;22.688;2023-10-08T04:35:48;11.73;;;6.03;;
32038;SDS011;18549;42.286;22.688;2023-10-08T04:38:21;14.27;;;6.23;;
32038;SDS011;18549;42.286;22.688;2023-10-08T04:41:01;10.02;;;6.65;;
32038;SDS011;18549;42.286;22.688;2023-10-08T04:43:34;12.77;;;7.30;;
32038;SDS011;18549;42.286;22.688;2023-10-08T04:46:08;10.73;;;6.90;;
32038;SDS011;18549;42.286;22.688;2023-10-08T04:48:44;14.27;;;7.60;;
32038;SDS011;18549;42.286;22.688;2023-10-08T04:51:16;21.27;;;8.67;;
32038;SDS011;18549;42.286;22.688;2023-10-08T04:53:48;16.57;;;7.83;;
32038;SDS011;18549;42.286;22.688;2023-10-08T04:56:15;22.57;;;10.20;;
32038;SDS011;18549;42.286;22.688;2023-10-08T04:58:47;19.40;;;9.67;;
32038;SDS011;18549;42.286;22.688;2023-10-08T05:01:16;31.20;;;10.77;;
32038;SDS011;18549;42.286;22.688;2023-10-08T05:03:46;20.07;;;9.17;;
32038;SDS011;18549;42.286;22.688;2023-10-08T05:06:35;19.57;;;9.90;;
32038;SDS011;18549;42.286;22.688;2023-10-08T05:09:27;15.17;;;8.03;;
32038;SDS011;18549;42.286;22.688;2023-10-08T05:12:11;13.80;;;7.27;;
32038;SDS011;18549;42.286;22.688;2023-10-08T05:14:55;12.00;;;7.47;;
32038;SDS011;18549;42.286;22.688;2023-10-08T05:17:42;13.23;;;7.50;;
32038;SDS011;18549;42.286;22.688;2023-10-08T05:20:23;13.70;;;8.20;;
32038;SDS011;18549;42.286;22.688;2023-10-08T05:23:25;19.20;;;6.83;;
32038;SDS011;18549;42.286;22.688;2023-10-08T05:26:13;15.70;;;6.67;;
32038;SDS011;18549;42.286;22.688;2023-10-08T05:28:56;8.83;;;6.57;;
32038;SDS011;18549;42.286;22.688;2023-10-08T05:31:27;17.20;;;7.63;;
32038;SDS011;18549;42.286;22.688;2023-10-08T05:34:12;10.50;;;6.57;;
32038;SDS011;18549;42.286;22.688;2023-10-08T05:36:51;13.33;;;7.90;;
32038;SDS011;18549;42.286;22.688;2023-10-08T05:39:59;26.20;;;8.53;;
32038;SDS011;18549;42.286;22.688;2023-10-08T05:42:38;16.93;;;8.03;;
32038;SDS011;18549;42.286;22.688;2023-10-08T05:45:15;12.63;;;7.30;;
32038;SDS011;18549;42.286;22.688;2023-10-08T05:47:57;14.40;;;6.33;;
32038;SDS011;18549;42.286;22.688;2023-10-08T05:50:40;15.03;;;6.90;;
32038;SDS011;18549;42.286;22.688;2023-10-08T05:53:20;13.50;;;7.87;;
32038;SDS011;18549;42.286;22.688;2023-10-08T05:56:11;13.13;;;8.00;;
32038;SDS011;18549;42.286;22.688;2023-10-08T05:58:53;18.90;;;10.63;;
32038;SDS011;18549;42.286;22.688;2023-10-08T06:01:44;17.00;;;9.97;;
32038;SDS011;18549;42.286;22.688;2023-10-08T06:04:11;19.30;;;10.13;;
32038;SDS011;18549;42.286;22.688;2023-10-08T06:07:06;14.63;;;10.20;;
32038;SDS011;18549;42.286;22.688;2023-10-08T06:09:45;14.03;;;8.43;;
32038;SDS011;18549;42.286;22.688;2023-10-08T06:12:30;14.07;;;6.70;;
32038;SDS011;18549;42.286;22.688;2023-10-08T06:15:10;19.33;;;6.60;;
32038;SDS011;18549;42.286;22.688;2023-10-08T06:17:37;12.10;;;6.00;;
32038;SDS011;18549;42.286;22.688;2023-10-08T06:20:22;11.00;;;6.70;;
32038;SDS011;18549;42.286;22.688;2023-10-08T06:22:52;8.90;;;5.37;;
32038;SDS011;18549;42.286;22.688;2023-10-08T06:25:26;20.30;;;8.37;;
32038;SDS011;18549;42.286;22.688;2023-10-08T06:28:12;24.83;;;9.15;;
32038;SDS011;18549;42.286;22.688;2023-10-08T06:30:44;14.52;;;8.38;;
32038;SDS011;18549;42.286;22.688;2023-10-08T06:33:18;22.52;;;8.38;;
32038;SDS011;18549;42.286;22.688;2023-10-08T06:35:56;21.37;;;8.95;;
32038;SDS011;18549;42.286;22.688;2023-10-08T06:38:41;18.00;;;10.18;;
32038;SDS011;18549;42.286;22.688;2023-10-08T06:41:11;15.77;;;9.63;;
32038;SDS011;18549;42.286;22.688;2023-10-08T06:43:51;21.07;;;9.63;;
32038;SDS011;18549;42.286;22.688;2023-10-08T06:46:30;16.48;;;8.45;;
32038;SDS011;18549;42.286;22.688;2023-10-08T06:49:14;22.70;;;8.68;;
32038;SDS011;18549;42.286;22.688;2023-10-08T06:51:44;12.82;;;7.60;;
32038;SDS011;18549;42.286;22.688;2023-10-08T06:54:15;13.32;;;7.75;;
32038;SDS011;18549;42.286;22.688;2023-10-08T06:56:43;21.50;;;7.80;;
32038;SDS011;18549;42.286;22.688;2023-10-08T06:59:24;14.45;;;8.18;;
32038;SDS011;18549;42.286;22.688;2023-10-08T07:01:56;24.58;;;8.52;;
32038;SDS011;18549;42.286;22.688;2023-10-08T07:04:24;17.67;;;8.07;;
32038;SDS011;18549;42.286;22.688;2023-10-08T07:06:54;16.08;;;7.55;;
32038;SDS011;18549;42.286;22.688;2023-10-08T07:09:21;19.90;;;7.97;;
32038;SDS011;18549;42.286;22.688;2023-10-08T07:11:55;14.20;;;6.80;;
32038;SDS011;18549;42.286;22.688;2023-10-08T07:14:23;10.27;;;6.32;;
32038;SDS011;18549;42.286;22.688;2023-10-08T07:16:54;9.45;;;5.95;;
32038;SDS011;18549;42.286;22.688;2023-10-08T07:19:25;10.68;;;5.35;;
32038;SDS011;18549;42.286;22.688;2023-10-08T07:22:04;10.00;;;5.93;;
32038;SDS011;18549;42.286;22.688;2023-10-08T07:24:43;17.85;;;7.00;;
32038;SDS011;18549;42.286;22.688;2023-10-08T07:27:15;12.60;;;6.73;;
32038;SDS011;18549;42.286;22.688;2023-10-08T07:29:58;12.03;;;6.03;;
32038;SDS011;18549;42.286;22.688;2023-10-08T07:32:35;11.53;;;5.97;;
32038;SDS011;18549;42.286;22.688;2023-10-08T07:35:22;11.00;;;5.93;;
32038;SDS011;18549;42.286;22.688;2023-10-08T07:38:06;9.63;;;6.83;;
32038;SDS011;18549;42.286;22.688;2023-10-08T07:40:39;15.07;;;7.77;;
32038;SDS011;18549;42.286;22.688;2023-10-08T07:43:08;12.45;;;8.20;;
32038;SDS011;18549;42.286;22.688;2023-10-08T07:45:48;11.97;;;6.50;;
32038;SDS011;18549;42.286;22.688;2023-10-08T07:48:20;19.92;;;7.50;;
32038;SDS011;18549;42.286;22.688;2023-10-08T07:50:56;9.07;;;5.97;;
32038;SDS011;18549;42.286;22.688;2023-10-08T07:53:30;13.82;;;6.68;;
32038;SDS011;18549;42.286;22.688;2023-10-08T07:56:06;16.58;;;7.10;;
32038;SDS011;18549;42.286;22.688;2023-10-08T07:58:46;11.75;;;6.07;;
32038;SDS011;18549;42.286;22.688;2023-10-08T08:01:32;11.85;;;5.50;;
32038;SDS011;18549;42.286;22.688;2023-10-08T08:04:14;14.45;;;5.53;;
32038;SDS011;18549;42.286;22.688;2023-10-08T08:06:48;13.80;;;6.05;;
32038;SDS011;18549;42.286;22.688;2023-10-08T08:09:25;12.27;;;6.85;;
32038;SDS011;18549;42.286;22.688;2023-10-08T08:12:02;13.73;;;5.87;;
32038;SDS011;18549;42.286;22.688;2023-10-08T08:14:36;18.02;;;5.65;;
32038;SDS011;18549;42.286;22.688;2023-10-08T08:17:20;10.95;;;5.18;;
32038;SDS011;18549;42.286;22.688;2023-10-08T08:19:52;17.37;;;8.00;;
32038;SDS011;18549;42.286;22.688;2023-10-08T08:22:21;11.75;;;6.32;;
32038;SDS011;18549;42.286;22.688;2023-10-08T08:25:06;9.30;;;5.07;;
32038;SDS011;18549;42.286;22.688;2023-10-08T08:28:02;9.45;;;5.75;;
32038;SDS011;18549;42.286;22.688;2023-10-08T08:30:42;11.18;;;6.07;;
32038;SDS011;18549;42.286;22.688;2023-10-08T08:33:25;10.43;;;5.10;;
32038;SDS011;18549;42.286;22.688;2023-10-08T08:36:21;8.98;;;4.90;;
32038;SDS011;18549;42.286;22.688;2023-10-08T08:39:09;11.93;;;5.40;;
32038;SDS011;18549;42.286;22.688;2023-10-08T08:41:45;12.35;;;5.32;;
32038;SDS011;18549;42.286;22.688;2023-10-08T08:44:33;11.70;;;5.15;;
32038;SDS011;18549;42.286;22.688;2023-10-08T08:47:15;7.07;;;4.68;;
32038;SDS011;18549;42.286;22.688;2023-10-08T08:52:55;10.40;;;4.93;;
32038;SDS011;18549;42.286;22.688;2023-10-08T08:55:34;7.55;;;4.62;;
32038;SDS011;18549;42.286;22.688;2023-10-08T08:58:17;11.27;;;4.80;;
32038;SDS011;18549;42.286;22.688;2023-10-08T09:00:55;7.40;;;3.97;;
32038;SDS011;18549;42.286;22.688;2023-10-08T09:03:24;10.07;;;4.93;;
32038;SDS011;18549;42.286;22.688;2023-10-08T09:06:02;9.00;;;4.62;;
32038;SDS011;18549;42.286;22.688;2023-10-08T09:08:41;11.65;;;4.87;;
32038;SDS011;18549;42.286;22.688;2023-10-08T09:11:13;9.35;;;4.35;;
32038;SDS011;18549;42.286;22.688;2023-10-08T09:13:47;9.07;;;5.82;;
32038;SDS011;18549;42.286;22.688;2023-10-08T09:16:20;9.82;;;5.95;;
32038;SDS011;18549;42.286;22.688;2023-10-08T09:19:04;8.02;;;4.90;;
32038;SDS011;18549;42.286;22.688;2023-10-08T09:22:02;14.10;;;5.60;;
32038;SDS011;18549;42.286;22.688;2023-10-08T09:28:07;11.25;;;4.28;;
32038;SDS011;18549;42.286;22.688;2023-10-08T09:31:01;11.73;;;4.40;;
32038;SDS011;18549;42.286;22.688;2023-10-08T09:33:42;6.57;;;3.83;;
32038;SDS011;18549;42.286;22.688;2023-10-08T09:36:28;15.50;;;5.05;;
32038;SDS011;18549;42.286;22.688;2023-10-08T09:39:09;15.45;;;5.97;;
32038;SDS011;18549;42.286;22.688;2023-10-08T09:41:50;7.80;;;4.73;;
32038;SDS011;18549;42.286;22.688;2023-10-08T09:44:29;12.88;;;4.78;;
32038;SDS011;18549;42.286;22.688;2023-10-08T09:47:08;12.48;;;5.10;;
32038;SDS011;18549;42.286;22.688;2023-10-08T09:50:17;10.40;;;4.60;;
32038;SDS011;18549;42.286;22.688;2023-10-08T09:52:55;9.57;;;4.32;;
32038;SDS011;18549;42.286;22.688;2023-10-08T09:55:43;13.85;;;4.12;;
32038;SDS011;18549;42.286;22.688;2023-10-08T10:02:05;11.02;;;5.80;;
32038;SDS011;18549;42.286;22.688;2023-10-08T10:05:01;8.23;;;4.30;;
32038;SDS011;18549;42.286;22.688;2023-10-08T10:08:00;8.00;;;4.35;;
32038;SDS011;18549;42.286;22.688;2023-10-08T10:10:49;9.32;;;4.72;;
32038;SDS011;18549;42.286;22.688;2023-10-08T10:13:58;10.60;;;4.25;;
32038;SDS011;18549;42.286;22.688;2023-10-08T10:36:11;6.40;;;4.07;;
32038;SDS011;18549;42.286;22.688;2023-10-08T10:41:54;9.73;;;4.53;;
32038;SDS011;18549;42.286;22.688;2023-10-08T10:44:48;11.05;;;4.90;;
32038;SDS011;18549;42.286;22.688;2023-10-08T10:50:47;14.80;;;5.28;;
32038;SDS011;18549;42.286;22.688;2023-10-08T11:00:21;15.05;;;4.20;;
32038;SDS011;18549;42.286;22.688;2023-10-08T11:05:51;15.52;;;4.40;;
32038;SDS011;18549;42.286;22.688;2023-10-08T11:07:58;11.95;;;4.55;;
32038;SDS011;18549;42.286;22.688;2023-10-08T11:11:06;12.82;;;4.50;;
32038;SDS011;18549;42.286;22.688;2023-10-08T11:14:06;9.75;;;3.92;;
32038;SDS011;18549;42.286;22.688;2023-10-08T11:16:43;11.15;;;4.55;;
32038;SDS011;18549;42.286;22.688;2023-10-08T11:33:10;16.70;;;4.97;;
32038;SDS011;18549;42.286;22.688;2023-10-08T11:35:54;14.57;;;4.60;;
32038;SDS011;18549;42.286;22.688;2023-10-08T11:38:25;17.75;;;5.12;;
32038;SDS011;18549;42.286;22.688;2023-10-08T11:40:54;13.60;;;4.90;;
32038;SDS011;18549;42.286;22.688;2023-10-08T11:43:23;23.83;;;4.80;;
32038;SDS011;18549;42.286;22.688;2023-10-08T11:45:52;14.18;;;3.62;;
32038;SDS011;18549;42.286;22.688;2023-10-08T11:48:21;14.25;;;4.72;;
32038;SDS011;18549;42.286;22.688;2023-10-08T11:50:53;13.47;;;3.80;;
32038;SDS011;18549;42.286;22.688;2023-10-08T11:53:22;16.73;;;4.30;;
32038;SDS011;18549;42.286;22.688;2023-10-08T11:55:54;13.77;;;4.03;;
32038;SDS011;18549;42.286;22.688;2023-10-08T11:58:22;10.43;;;3.55;;
32038;SDS011;18549;42.286;22.688;2023-10-08T12:01:02;16.62;;;4.18;;
32038;SDS011;18549;42.286;22.688;2023-10-08T12:03:32;9.55;;;4.03;;
32038;SDS011;18549;42.286;22.688;2023-10-08T12:06:00;9.40;;;3.72;;
32038;SDS011;18549;42.286;22.688;2023-10-08T12:08:30;11.15;;;3.80;;
32038;SDS011;18549;42.286;22.688;2023-10-08T12:11:04;25.83;;;3.50;;
32038;SDS011;18549;42.286;22.688;2023-10-08T12:13:37;16.62;;;3.53;;
32038;SDS011;18549;42.286;22.688;2023-10-08T12:16:11;16.70;;;3.78;;
32038;SDS011;18549;42.286;22.688;2023-10-08T12:18:45;15.32;;;4.00;;
32038;SDS011;18549;42.286;22.688;2023-10-08T12:21:18;25.25;;;4.47;;
32038;SDS011;18549;42.286;22.688;2023-10-08T12:23:47;20.40;;;4.53;;
32038;SDS011;18549;42.286;22.688;2023-10-08T12:26:17;16.05;;;4.95;;
32038;SDS011;18549;42.286;22.688;2023-10-08T12:28:45;16.95;;;4.37;;
32038;SDS011;18549;42.286;22.688;2023-10-08T12:31:14;17.58;;;4.78;;
32038;SDS011;18549;42.286;22.688;2023-10-08T12:33:42;25.75;;;4.78;;
32038;SDS011;18549;42.286;22.688;2023-10-08T12:36:14;26.37;;;6.72;;
32038;SDS011;18549;42.286;22.688;2023-10-08T12:38:42;25.33;;;6.12;;
32038;SDS011;18549;42.286;22.688;2023-10-08T12:48:58;13.95;;;3.75;;
32038;SDS011;18549;42.286;22.688;2023-10-08T12:51:28;17.45;;;5.00;;
32038;SDS011;18549;42.286;22.688;2023-10-08T12:53:58;17.90;;;5.82;;
32038;SDS011;18549;42.286;22.688;2023-10-08T12:56:32;20.55;;;5.20;;
32038;SDS011;18549;42.286;22.688;2023-10-08T12:59:05;17.30;;;4.70;;
32038;SDS011;18549;42.286;22.688;2023-10-08T13:01:32;17.58;;;5.95;;
32038;SDS011;18549;42.286;22.688;2023-10-08T13:04:01;14.65;;;4.25;;
32038;SDS011;18549;42.286;22.688;2023-10-08T13:06:34;22.08;;;4.55;;
32038;SDS011;18549;42.286;22.688;2023-10-08T13:09:03;22.30;;;4.72;;
32038;SDS011;18549;42.286;22.688;2023-10-08T13:11:38;12.98;;;3.50;;
32038;SDS011;18549;42.286;22.688;2023-10-08T13:14:05;14.40;;;4.00;;
32038;SDS011;18549;42.286;22.688;2023-10-08T13:16:33;25.27;;;4.45;;
32038;SDS011;18549;42.286;22.688;2023-10-08T13:19:02;22.55;;;4.07;;
32038;SDS011;18549;42.286;22.688;2023-10-08T13:21:35;17.15;;;3.72;;
32038;SDS011;18549;42.286;22.688;2023-10-08T13:24:02;18.58;;;3.95;;
32038;SDS011;18549;42.286;22.688;2023-10-08T13:26:35;24.00;;;4.22;;
32038;SDS011;18549;42.286;22.688;2023-10-08T13:29:03;11.35;;;3.42;;
32038;SDS011;18549;42.286;22.688;2023-10-08T13:31:34;21.25;;;4.20;;
32038;SDS011;18549;42.286;22.688;2023-10-08T13:34:02;12.55;;;4.05;;
32038;SDS011;18549;42.286;22.688;2023-10-08T13:36:35;13.88;;;3.87;;
32038;SDS011;18549;42.286;22.688;2023-10-08T13:39:05;15.52;;;5.37;;
32038;SDS011;18549;42.286;22.688;2023-10-08T13:41:35;27.62;;;4.70;;
32038;SDS011;18549;42.286;22.688;2023-10-08T13:44:04;20.85;;;4.85;;
32038;SDS011;18549;42.286;22.688;2023-10-08T13:46:31;19.33;;;5.53;;
32038;SDS011;18549;42.286;22.688;2023-10-08T13:49:01;22.27;;;5.28;;
32038;SDS011;18549;42.286;22.688;2023-10-08T13:51:31;17.02;;;4.12;;
32038;SDS011;18549;42.286;22.688;2023-10-08T13:54:02;9.73;;;3.80;;
32038;SDS011;18549;42.286;22.688;2023-10-08T13:56:32;12.65;;;4.37;;
32038;SDS011;18549;42.286;22.688;2023-10-08T13:59:03;17.37;;;3.30;;
32038;SDS011;18549;42.286;22.688;2023-10-08T14:01:37;27.42;;;4.32;;
32038;SDS011;18549;42.286;22.688;2023-10-08T14:04:08;15.00;;;3.97;;
32038;SDS011;18549;42.286;22.688;2023-10-08T14:06:36;18.67;;;4.80;;
32038;SDS011;18549;42.286;22.688;2023-10-08T14:09:07;16.87;;;3.90;;
32038;SDS011;18549;42.286;22.688;2023-10-08T14:11:37;10.45;;;3.58;;
32038;SDS011;18549;42.286;22.688;2023-10-08T14:14:05;17.62;;;3.67;;
32038;SDS011;18549;42.286;22.688;2023-10-08T14:16:36;15.00;;;4.80;;
32038;SDS011;18549;42.286;22.688;2023-10-08T14:19:07;12.05;;;4.70;;
32038;SDS011;18549;42.286;22.688;2023-10-08T14:21:39;19.35;;;3.83;;
32038;SDS011;18549;42.286;22.688;2023-10-08T14:24:16;12.13;;;3.58;;
32038;SDS011;18549;42.286;22.688;2023-10-08T14:26:45;18.27;;;4.68;;
32038;SDS011;18549;42.286;22.688;2023-10-08T14:29:18;13.98;;;4.78;;
32038;SDS011;18549;42.286;22.688;2023-10-08T14:31:46;17.17;;;3.85;;
32038;SDS011;18549;42.286;22.688;2023-10-08T14:34:15;15.85;;;4.20;;
32038;SDS011;18549;42.286;22.688;2023-10-08T14:36:54;17.40;;;4.70;;
32038;SDS011;18549;42.286;22.688;2023-10-08T14:39:41;17.87;;;3.97;;
32038;SDS011;18549;42.286;22.688;2023-10-08T14:42:26;18.92;;;3.90;;
32038;SDS011;18549;42.286;22.688;2023-10-08T14:45:10;16.33;;;4.47;;
32038;SDS011;18549;42.286;22.688;2023-10-08T14:47:38;22.70;;;4.32;;
32038;SDS011;18549;42.286;22.688;2023-10-08T14:50:07;13.57;;;3.45;;
32038;SDS011;18549;42.286;22.688;2023-10-08T14:52:41;16.65;;;3.95;;
32038;SDS011;18549;42.286;22.688;2023-10-08T14:55:10;22.08;;;5.15;;
32038;SDS011;18549;42.286;22.688;2023-10-08T14:57:38;17.92;;;4.25;;
32038;SDS011;18549;42.286;22.688;2023-10-08T15:00:07;17.92;;;3.83;;
32038;SDS011;18549;42.286;22.688;2023-10-08T15:02:35;10.45;;;3.90;;
32038;SDS011;18549;42.286;22.688;2023-10-08T15:05:03;19.50;;;4.12;;
32038;SDS011;18549;42.286;22.688;2023-10-08T15:07:32;13.23;;;3.97;;
32038;SDS011;18549;42.286;22.688;2023-10-08T15:10:00;25.15;;;4.70;;
32038;SDS011;18549;42.286;22.688;2023-10-08T15:12:29;16.90;;;4.28;;
32038;SDS011;18549;42.286;22.688;2023-10-08T15:15:00;18.58;;;4.10;;
32038;SDS011;18549;42.286;22.688;2023-10-08T15:17:39;17.33;;;3.87;;
32038;SDS011;18549;42.286;22.688;2023-10-08T15:20:08;12.00;;;4.37;;
32038;SDS011;18549;42.286;22.688;2023-10-08T15:22:40;14.57;;;3.58;;
32038;SDS011;18549;42.286;22.688;2023-10-08T15:25:09;21.95;;;4.22;;
32038;SDS011;18549;42.286;22.688;2023-10-08T15:27:39;10.77;;;3.85;;
32038;SDS011;18549;42.286;22.688;2023-10-08T15:30:09;21.65;;;4.70;;
32038;SDS011;18549;42.286;22.688;2023-10-08T15:32:38;21.55;;;6.53;;
32038;SDS011;18549;42.286;22.688;2023-10-08T15:35:06;16.30;;;4.60;;
32038;SDS011;18549;42.286;22.688;2023-10-08T15:37:36;14.13;;;5.05;;
32038;SDS011;18549;42.286;22.688;2023-10-08T15:40:11;18.80;;;3.78;;
32038;SDS011;18549;42.286;22.688;2023-10-08T15:42:46;11.80;;;4.05;;
32038;SDS011;18549;42.286;22.688;2023-10-08T15:45:16;16.62;;;4.03;;
32038;SDS011;18549;42.286;22.688;2023-10-08T15:47:45;19.15;;;5.60;;
32038;SDS011;18549;42.286;22.688;2023-10-08T15:50:14;17.27;;;4.65;;
32038;SDS011;18549;42.286;22.688;2023-10-08T15:52:42;13.70;;;4.05;;
32038;SDS011;18549;42.286;22.688;2023-10-08T15:55:09;19.75;;;5.80;;
32038;SDS011;18549;42.286;22.688;2023-10-08T15:57:37;19.23;;;4.12;;
32038;SDS011;18549;42.286;22.688;2023-10-08T16:00:07;28.87;;;4.75;;
32038;SDS011;18549;42.286;22.688;2023-10-08T16:02:36;19.27;;;4.18;;
32038;SDS011;18549;42.286;22.688;2023-10-08T16:05:04;17.45;;;3.97;;
32038;SDS011;18549;42.286;22.688;2023-10-08T16:07:33;17.58;;;4.97;;
32038;SDS011;18549;42.286;22.688;2023-10-08T16:10:01;18.23;;;6.07;;
32038;SDS011;18549;42.286;22.688;2023-10-08T16:12:31;22.30;;;5.82;;
32038;SDS011;18549;42.286;22.688;2023-10-08T16:15:01;23.27;;;6.20;;
32038;SDS011;18549;42.286;22.688;2023-10-08T16:17:31;19.67;;;4.35;;
32038;SDS011;18549;42.286;22.688;2023-10-08T16:19:58;14.83;;;4.40;;
32038;SDS011;18549;42.286;22.688;2023-10-08T16:22:39;14.82;;;5.18;;